createdAt,value
2018-11-10T00:03:22.026Z,5.07
2018-11-10T00:09:17.025Z,5.43
2018-11-10T00:15:12.026Z,5.29
2018-11-10T00:21:07.088Z,6.98
2018-11-10T00:27:02.068Z,5.5
2018-11-10T00:32:57.065Z,6.34
2018-11-10T00:38:52.062Z,5.65
2018-11-10T00:44:47.063Z,4.9
2018-11-10T00:50:42.047Z,5.18
2018-11-10T00:56:37.063Z,4.74
2018-11-10T01:02:32.096Z,4.94
2018-11-10T01:08:27.067Z,5.09
2018-11-10T01:14:22.091Z,6.17
2018-11-10T01:20:17.090Z,6.31
2018-11-10T01:26:12.108Z,5.89
2018-11-10T01:32:07.100Z,5.7
2018-11-10T01:38:02.071Z,6.48
2018-11-10T01:43:57.097Z,6.36
2018-11-10T01:49:52.097Z,5.3
2018-11-10T01:55:47.129Z,5.97
2018-11-10T02:01:42.108Z,4.77
2018-11-10T02:07:37.094Z,4.81
2018-11-10T02:13:32.090Z,4.82
2018-11-10T02:19:27.133Z,5.33
2018-11-10T02:25:22.121Z,5.35
2018-11-10T02:31:17.156Z,5.5
2018-11-10T02:37:12.143Z,5
2018-11-10T02:43:07.138Z,6.1
2018-11-10T02:49:02.130Z,5.03
2018-11-10T02:54:57.126Z,5
2018-11-10T03:00:52.137Z,6.03
2018-11-10T03:06:47.144Z,5.66
2018-11-10T03:12:42.141Z,5.22
2018-11-10T03:18:37.173Z,5.22
2018-11-10T03:24:32.141Z,5.02
2018-11-10T03:30:27.172Z,5.85
2018-11-10T03:36:22.162Z,5.3
2018-11-10T03:42:17.167Z,4.69
2018-11-10T03:48:12.143Z,4.81
2018-11-10T03:54:07.158Z,5.46
2018-11-10T04:00:02.210Z,6.28
2018-11-10T04:05:57.213Z,6.13
2018-11-10T04:11:52.198Z,4.29
2018-11-10T04:17:47.186Z,5.24
2018-11-10T04:23:42.180Z,4.94
2018-11-10T04:29:37.221Z,5.04
2018-11-10T04:35:32.211Z,5.04
2018-11-10T04:41:27.182Z,4.82
2018-11-10T04:47:22.177Z,4.27
2018-11-10T04:53:17.195Z,4.33
2018-11-10T04:59:12.194Z,4.17
2018-11-10T05:05:07.184Z,4.2
2018-11-10T05:11:02.241Z,4.04
2018-11-10T05:16:57.258Z,4.07
2018-11-10T05:22:52.218Z,3.89
2018-11-10T05:28:47.242Z,4.87
2018-11-10T05:34:42.257Z,4.72
2018-11-10T05:40:37.224Z,4.57
2018-11-10T05:46:32.225Z,5.38
2018-11-10T05:52:27.225Z,4.47
2018-11-10T05:58:22.294Z,4.89
2018-11-10T06:04:17.270Z,4.3
2018-11-10T06:10:12.474Z,4.34
2018-11-10T06:16:07.360Z,4.27
2018-11-10T06:22:02.242Z,4.09
2018-11-10T06:27:57.273Z,5.18
2018-11-10T06:33:52.253Z,4.58
2018-11-10T06:39:47.256Z,4.5
2018-11-10T06:45:42.256Z,4.88
2018-11-10T06:51:37.241Z,4.52
2018-11-10T06:57:32.273Z,5.65
2018-11-10T07:03:27.363Z,5.06
2018-11-10T07:09:22.310Z,9
2018-11-10T07:15:17.264Z,11.17
2018-11-10T07:21:12.362Z,12.77
2018-11-10T07:27:07.269Z,12.16
2018-11-10T07:33:02.299Z,12.51
2018-11-10T07:38:57.272Z,12.64
2018-11-10T07:44:52.291Z,12.98
2018-11-10T07:50:47.299Z,12.31
2018-11-10T07:56:42.302Z,13.42
2018-11-10T08:02:37.296Z,14.77
2018-11-10T08:08:32.327Z,15.87
2018-11-10T08:14:27.302Z,15.85
2018-11-10T08:20:22.331Z,18.88
2018-11-10T08:26:17.364Z,19.76
2018-11-10T08:32:12.300Z,21.76
2018-11-10T08:38:07.353Z,21.42
2018-11-10T08:44:02.342Z,21.93
2018-11-10T08:49:57.326Z,21.18
2018-11-10T08:55:52.361Z,22.41
2018-11-10T09:01:47.400Z,22.31
2018-11-10T09:07:42.335Z,22.39
2018-11-10T09:13:37.376Z,22.99
2018-11-10T09:19:32.337Z,21.27
2018-11-10T09:25:27.353Z,20.72
2018-11-10T09:31:22.382Z,20.8
2018-11-10T09:37:17.363Z,21
2018-11-10T09:43:12.402Z,21.19
2018-11-10T09:49:07.373Z,18.44
2018-11-10T09:55:02.374Z,17.63
2018-11-10T10:00:57.524Z,16.78
2018-11-10T10:06:52.400Z,18.73
2018-11-10T10:12:47.378Z,18.8
2018-11-10T10:18:42.383Z,21.2
2018-11-10T10:24:37.365Z,20.46
2018-11-10T10:30:32.408Z,19.04
2018-11-10T10:36:27.414Z,16.48
2018-11-10T10:42:22.377Z,14.75
2018-11-10T10:48:17.409Z,17.38
2018-11-10T10:54:12.411Z,13.34
2018-11-10T11:00:07.411Z,11.27
2018-11-10T11:06:02.415Z,8.28
2018-11-10T11:11:57.422Z,7.77
2018-11-10T11:17:52.446Z,6.54
2018-11-10T11:23:47.446Z,5.73
2018-11-10T11:29:42.459Z,7.58
2018-11-10T11:35:37.451Z,6.83
2018-11-10T11:41:32.733Z,6.98
2018-11-10T11:47:27.435Z,7.22
2018-11-10T11:53:22.516Z,6.6
2018-11-10T11:59:17.527Z,6.3
2018-11-10T12:05:12.459Z,6.5
2018-11-10T12:11:07.447Z,6.23
2018-11-10T12:17:02.550Z,5.91
2018-11-10T12:22:57.466Z,6.06
2018-11-10T12:28:52.468Z,5.27
2018-11-10T12:34:47.459Z,4.09
2018-11-10T12:40:42.492Z,3.55
2018-11-10T12:46:37.492Z,3.76
2018-11-10T12:52:32.490Z,3.96
2018-11-10T12:58:27.511Z,4.68
2018-11-10T13:04:22.532Z,4.06
2018-11-10T13:10:17.498Z,4.23
2018-11-10T13:16:12.503Z,4.07
2018-11-10T13:22:07.502Z,3.31
2018-11-10T13:28:02.532Z,4.09
2018-11-10T13:33:57.525Z,3.96
2018-11-10T13:39:52.529Z,3.68
2018-11-10T13:45:47.518Z,4.46
2018-11-10T13:51:42.914Z,4.82
2018-11-10T13:57:37.530Z,4.05
2018-11-10T14:03:32.547Z,4.31
2018-11-10T14:09:27.543Z,3.86
2018-11-10T14:15:22.533Z,4.25
2018-11-10T14:21:17.572Z,4.77
2018-11-10T14:27:12.530Z,4.57
2018-11-10T14:33:07.580Z,3.95
2018-11-10T14:39:02.550Z,4.81
2018-11-10T14:44:57.587Z,3.06
2018-11-10T14:50:52.615Z,4.04
2018-11-10T14:56:47.609Z,3.7
2018-11-10T15:02:42.599Z,5.02
2018-11-10T15:08:37.591Z,5.1
2018-11-10T15:14:32.578Z,5.16
2018-11-10T15:20:27.600Z,4.62
2018-11-10T15:26:22.645Z,4.19
2018-11-10T15:32:17.604Z,4.24
2018-11-10T15:38:12.604Z,4.01
2018-11-10T15:44:07.598Z,4.29
2018-11-10T15:50:02.616Z,4.52
2018-11-10T15:55:57.618Z,4.25
2018-11-10T16:01:52.682Z,23.35
2018-11-10T16:07:47.628Z,4.39
2018-11-10T16:13:42.644Z,4.73
2018-11-10T16:19:37.608Z,4.03
2018-11-10T16:25:32.625Z,4.47
2018-11-10T16:31:27.622Z,4.45
2018-11-10T16:37:22.752Z,4.97
2018-11-10T16:43:17.638Z,9.08
2018-11-10T16:49:12.642Z,6.79
2018-11-10T16:55:07.734Z,7.85
2018-11-10T17:01:02.683Z,6.5
2018-11-10T17:06:57.676Z,5.9
2018-11-10T17:12:52.653Z,5.24
2018-11-10T17:18:47.665Z,5.43
2018-11-10T17:24:42.666Z,6.96
2018-11-10T17:30:37.674Z,6.75
2018-11-10T17:36:32.640Z,6.5
2018-11-10T17:42:27.692Z,5.97
2018-11-10T17:48:22.800Z,5.53
2018-11-10T17:54:17.685Z,7.33
2018-11-10T18:00:12.710Z,9.78
2018-11-10T18:06:07.669Z,14.82
2018-11-10T18:12:02.677Z,15.71
2018-11-10T18:17:57.767Z,14.24
2018-11-10T18:23:52.693Z,8.57
2018-11-10T18:29:47.679Z,11.07
2018-11-10T18:35:42.710Z,6.88
2018-11-10T18:41:37.739Z,5.59
2018-11-10T18:47:32.703Z,4.8
2018-11-10T18:53:27.746Z,4.84
2018-11-10T18:59:22.723Z,6.65
2018-11-10T19:05:17.744Z,5.93
2018-11-10T19:11:12.719Z,4.9
2018-11-10T19:17:07.723Z,5.42
2018-11-10T19:23:02.787Z,6.77
2018-11-10T19:28:57.751Z,6.21
2018-11-10T19:34:52.756Z,5.5
2018-11-10T19:40:47.732Z,6.58
2018-11-10T19:46:42.724Z,5.93
2018-11-10T19:52:37.758Z,6.12
2018-11-10T19:58:32.741Z,6.81
2018-11-10T20:04:27.770Z,6.77
2018-11-10T20:10:22.757Z,7.3
2018-11-10T20:16:17.771Z,13.01
2018-11-10T20:22:12.776Z,9.91
2018-11-10T20:28:07.782Z,9.65
2018-11-10T20:34:02.758Z,10.88
2018-11-10T20:39:57.796Z,8.08
2018-11-10T20:45:52.776Z,6.85
2018-11-10T20:51:47.763Z,6.58
2018-11-10T20:57:42.775Z,6.45
2018-11-10T21:03:37.782Z,6.83
2018-11-10T21:09:32.805Z,6.2
2018-11-10T21:15:27.771Z,6.3
2018-11-10T21:21:22.797Z,6.31
2018-11-10T21:27:17.788Z,6.62
2018-11-10T21:33:12.793Z,6.11
2018-11-10T21:39:07.833Z,9
2018-11-10T21:45:02.830Z,8.39
2018-11-10T21:50:57.804Z,11.6
2018-11-10T21:56:52.811Z,17.24
2018-11-10T22:02:47.850Z,17.58
2018-11-10T22:08:42.922Z,13.83
2018-11-10T22:14:37.824Z,13.42
2018-11-10T22:20:32.828Z,15.07
2018-11-10T22:26:27.887Z,10.57
2018-11-10T22:32:22.828Z,10.35
2018-11-10T22:38:17.827Z,11.85
2018-11-10T22:44:12.895Z,10.57
2018-11-10T22:50:07.849Z,10.81
2018-11-10T22:56:02.876Z,12.76
2018-11-10T23:01:57.845Z,13.67
2018-11-10T23:07:52.854Z,15.09
2018-11-10T23:13:47.857Z,15.03
2018-11-10T23:19:42.880Z,17.06
2018-11-10T23:25:37.857Z,15.77
2018-11-10T23:31:32.920Z,15.84
2018-11-10T23:37:27.911Z,14.48
2018-11-10T23:43:22.870Z,10.97
2018-11-10T23:49:17.885Z,10.91
2018-11-10T23:55:12.947Z,10.02
